Time;durP1;ratioP1;P1;durP2;ratioP2;P2;SDS_P1;SDS_P2;PMS_P1;PMS_P2;Temp;Humidity;BMP_temperature;BMP_pressure;BME280_temperature;BME280_humidity;BME280_pressure;Samples;Min_cycle;Max_cycle;Signal;HPM_P1;HPM_P2
2021/10/01 00:01:54;;;;;;;9.50;3.40;;;;;;;-145.42;100.00;56955.94;2543489;31;2004596;-45
2021/10/01 00:05:21;;;;;;;6.55;3.15;;;;;;;-145.42;100.00;56955.94;2544131;31;2005352;-47
2021/10/01 00:08:47;;;;;;;9.93;3.05;;;;;;;-145.42;100.00;56955.94;2544628;31;2004771;-46
2021/10/01 00:12:12;;;;;;;4.72;2.97;;;;;;;-145.42;100.00;56955.94;2544740;31;2004987;-46
2021/10/01 00:15:38;;;;;;;6.78;3.30;;;;;;;-145.42;100.00;56955.94;2544371;31;2005096;-46
2021/10/01 00:19:04;;;;;;;8.35;2.97;;;;;;;-145.42;100.00;56955.94;2544554;31;2004868;-48
2021/10/01 00:22:30;;;;;;;7.53;2.85;;;;;;;-145.42;100.00;56955.94;2544571;31;2004883;-46
2021/10/01 00:25:55;;;;;;;9.40;3.08;;;;;;;-145.42;100.00;56955.94;2544366;31;2005075;-46
2021/10/01 00:29:21;;;;;;;6.15;3.40;;;;;;;-145.42;100.00;56955.94;2544481;36;2004951;-45
2021/10/01 00:32:48;;;;;;;4.38;3.13;;;;;;;-145.42;100.00;56955.94;2544337;36;2005048;-46
2021/10/01 00:36:14;;;;;;;9.13;3.25;;;;;;;-145.42;100.00;56955.94;2544502;31;2004983;-46
2021/10/01 00:39:39;;;;;;;4.07;2.75;;;;;;;-145.42;100.00;56955.94;2544683;31;2004870;-47
2021/10/01 00:43:05;;;;;;;8.07;2.88;;;;;;;-145.42;100.00;56955.94;2581320;31;2004383;-47
2021/10/01 00:46:31;;;;;;;7.32;4.10;;;;;;;-145.42;100.00;56955.94;2544083;31;2005528;-47
2021/10/01 00:49:56;;;;;;;7.38;3.63;;;;;;;-145.42;100.00;56955.94;2544800;31;2004868;-48
2021/10/01 00:53:22;;;;;;;5.55;2.88;;;;;;;-145.42;100.00;56955.94;2544330;31;2004974;-46
2021/10/01 00:56:48;;;;;;;6.28;3.20;;;;;;;-145.42;100.00;56955.94;2543586;36;2005099;-47
2021/10/01 01:00:26;;;;;;;4.28;3.17;;;;;;;-145.42;100.00;56955.94;2543655;36;2004818;-47
2021/10/01 01:04:01;;;;;;;6.90;3.38;;;;;;;-145.42;100.00;56955.94;2544004;36;2005063;-46
2021/10/01 01:07:38;;;;;;;8.30;3.50;;;;;;;-145.42;100.00;56955.94;2544744;31;2005139;-44
2021/10/01 01:11:23;;;;;;;11.05;3.53;;;;;;;-145.42;100.00;56955.94;2544144;36;2004806;-46
2021/10/01 01:15:07;;;;;;;6.95;3.08;;;;;;;-145.42;100.00;56955.94;2508826;31;2004923;-45
2021/10/01 01:18:45;;;;;;;6.95;3.22;;;;;;;-145.42;100.00;56955.94;2544860;31;2005133;-44
2021/10/01 01:22:25;;;;;;;7.07;3.58;;;;;;;-145.42;100.00;56955.94;2507918;36;2004976;-46
2021/10/01 01:25:56;;;;;;;6.45;4.05;;;;;;;-145.42;100.00;56955.94;2544410;31;2004944;-49
2021/10/01 01:29:29;;;;;;;7.00;3.78;;;;;;;-145.42;100.00;56955.94;2552173;31;2005005;-49
2021/10/01 01:32:58;;;;;;;8.40;4.05;;;;;;;-145.42;100.00;56955.94;2548304;31;2005125;-50
2021/10/01 01:36:25;;;;;;;8.38;3.97;;;;;;;-145.42;100.00;56955.94;2544303;31;2005177;-47
2021/10/01 01:39:53;;;;;;;6.38;4.13;;;;;;;-145.42;100.00;56955.94;2543735;36;2005091;-47
2021/10/01 01:43:19;;;;;;;9.45;4.05;;;;;;;-145.42;100.00;56955.94;2543737;31;2004408;-46
2021/10/01 01:46:46;;;;;;;5.47;3.53;;;;;;;-145.42;100.00;56955.94;2544482;31;2004917;-46
2021/10/01 01:50:12;;;;;;;7.82;3.80;;;;;;;-145.42;100.00;56955.94;2543145;36;2004872;-46
2021/10/01 01:53:41;;;;;;;5.40;3.20;;;;;;;-145.42;100.00;56955.94;2544441;31;2004778;-48
2021/10/01 01:57:08;;;;;;;5.78;3.60;;;;;;;-145.42;100.00;56955.94;2543537;36;2005300;-46
2021/10/01 02:00:34;;;;;;;4.57;3.67;;;;;;;-145.42;100.00;56955.94;2507379;36;2005240;-49
2021/10/01 02:04:02;;;;;;;9.65;3.80;;;;;;;-145.42;100.00;56955.94;2544293;31;2004693;-50
2021/10/01 02:07:31;;;;;;;5.03;3.30;;;;;;;-145.42;100.00;56955.94;2543593;31;2004910;-47
2021/10/01 02:10:57;;;;;;;8.13;3.67;;;;;;;-145.42;100.00;56955.94;2544854;31;2005002;-48
2021/10/01 02:14:25;;;;;;;4.05;3.65;;;;;;;-145.42;100.00;56955.94;2543897;31;2004883;-46
2021/10/01 02:17:56;;;;;;;6.72;4.15;;;;;;;-145.42;100.00;56955.94;2544259;31;2004907;-47
2021/10/01 02:21:23;;;;;;;6.28;3.80;;;;;;;-145.42;100.00;56955.94;2544075;31;2005047;-52
2021/10/01 02:24:49;;;;;;;7.88;4.05;;;;;;;-145.42;100.00;56955.94;2545746;36;2005006;-51
2021/10/01 02:28:30;;;;;;;4.43;4.03;;;;;;;-145.42;100.00;56955.94;2544980;36;2004792;-46
2021/10/01 02:32:13;;;;;;;8.93;4.28;;;;;;;-145.42;100.00;56955.94;2544415;31;2004880;-53
2021/10/01 02:35:40;;;;;;;7.07;4.43;;;;;;;-145.42;100.00;56955.94;2507036;36;2004848;-47
2021/10/01 02:39:05;;;;;;;6.45;3.75;;;;;;;-145.42;100.00;56955.94;2579650;36;2004798;-47
2021/10/01 02:42:31;;;;;;;9.57;4.57;;;;;;;-145.42;100.00;56955.94;2543359;36;2005062;-48
2021/10/01 02:45:57;;;;;;;7.50;4.13;;;;;;;-145.42;100.00;56955.94;2543009;36;2005183;-50
2021/10/01 02:49:23;;;;;;;5.47;3.78;;;;;;;-145.42;100.00;56955.94;2544202;31;2004887;-46
2021/10/01 02:52:56;;;;;;;6.90;4.20;;;;;;;-145.42;100.00;56955.94;2543729;31;2005092;-45
2021/10/01 02:56:42;;;;;;;6.97;4.45;;;;;;;-145.42;100.00;56955.94;2543380;31;2005185;-46
2021/10/01 03:00:10;;;;;;;6.82;4.70;;;;;;;-145.42;100.00;56955.94;2507226;31;2005060;-46
2021/10/01 03:03:43;;;;;;;6.60;4.72;;;;;;;-145.42;100.00;56955.94;2543817;31;2005117;-46
2021/10/01 03:07:10;;;;;;;7.32;4.82;;;;;;;-145.42;100.00;56955.94;2507628;31;2005188;-47
2021/10/01 03:10:37;;;;;;;7.38;4.25;;;;;;;-145.42;100.00;56955.94;2579411;36;2004366;-48
2021/10/01 03:14:03;;;;;;;8.00;5.10;;;;;;;-145.42;100.00;56955.94;2544019;36;2004766;-46
2021/10/01 03:17:31;;;;;;;7.15;4.82;;;;;;;-145.42;100.00;56955.94;2543168;36;2004877;-46
2021/10/01 03:20:58;;;;;;;8.40;4.75;;;;;;;-145.42;100.00;56955.94;2543790;31;2005018;-46
2021/10/01 03:24:23;;;;;;;6.05;4.20;;;;;;;-145.42;100.00;56955.94;2543550;31;2005196;-47
2021/10/01 03:27:50;;;;;;;6.30;5.68;;;;;;;-145.42;100.00;56955.94;2543707;31;2004777;-47
2021/10/01 03:31:16;;;;;;;8.85;4.78;;;;;;;-145.42;100.00;56955.94;2543045;36;2004868;-46
2021/10/01 03:34:42;;;;;;;10.90;5.15;;;;;;;-145.42;100.00;56955.94;2542980;36;2004802;-46
2021/10/01 03:38:12;;;;;;;8.05;4.43;;;;;;;-145.42;100.00;56955.94;2543870;36;2005073;-46
2021/10/01 03:41:37;;;;;;;5.85;4.22;;;;;;;-145.42;100.00;56955.94;2544730;31;2005116;-46
2021/10/01 03:45:05;;;;;;;4.95;4.40;;;;;;;-145.42;100.00;56955.94;2543897;36;2004924;-48
2021/10/01 03:48:30;;;;;;;9.73;4.63;;;;;;;-145.42;100.00;56955.94;2543839;36;2005012;-47
2021/10/01 03:51:58;;;;;;;7.47;5.03;;;;;;;-145.42;100.00;56955.94;2544156;36;2004756;-46
2021/10/01 03:55:24;;;;;;;12.20;5.03;;;;;;;-145.42;100.00;56955.94;2543565;36;2005028;-48
2021/10/01 03:58:50;;;;;;;5.68;4.53;;;;;;;-145.42;100.00;56955.94;2544569;31;2005077;-46
2021/10/01 04:02:15;;;;;;;8.13;5.18;;;;;;;-145.42;100.00;56955.94;2544308;36;2004954;-48
2021/10/01 04:05:41;;;;;;;5.15;4.35;;;;;;;-145.42;100.00;56955.94;2544141;36;2004947;-50
2021/10/01 04:09:08;;;;;;;6.10;4.60;;;;;;;-145.42;100.00;56955.94;2544024;36;2004918;-47
2021/10/01 04:12:34;;;;;;;5.82;4.78;;;;;;;-145.42;100.00;56955.94;2543827;36;2004445;-49
2021/10/01 04:15:59;;;;;;;5.68;4.88;;;;;;;-145.42;100.00;56955.94;2544151;31;2004811;-46
2021/10/01 04:19:25;;;;;;;6.63;4.57;;;;;;;-145.42;100.00;56955.94;2543756;36;2004975;-49
2021/10/01 04:23:02;;;;;;;5.70;5.10;;;;;;;-145.42;100.00;56955.94;2544561;31;2004747;-46
2021/10/01 04:26:28;;;;;;;8.52;5.20;;;;;;;-145.42;100.00;56955.94;2543857;36;2005129;-46
2021/10/01 04:29:53;;;;;;;8.20;4.75;;;;;;;-145.42;100.00;56955.94;2543865;36;2004927;-46
2021/10/01 04:33:24;;;;;;;5.30;4.72;;;;;;;-145.42;100.00;56955.94;2544205;31;2005089;-48
2021/10/01 04:36:50;;;;;;;6.75;5.22;;;;;;;-145.42;100.00;56955.94;2544051;36;2004372;-46
2021/10/01 04:40:16;;;;;;;7.50;5.32;;;;;;;-145.42;100.00;56955.94;2544404;36;2004970;-46
2021/10/01 04:43:41;;;;;;;7.03;5.13;;;;;;;-145.42;100.00;56955.94;2543870;36;2004978;-46
2021/10/01 04:47:07;;;;;;;9.48;5.13;;;;;;;-145.42;100.00;56955.94;2544871;31;2004918;-50
2021/10/01 04:50:33;;;;;;;7.00;4.85;;;;;;;-145.42;100.00;56955.94;2544544;36;2004956;-51
2021/10/01 04:53:59;;;;;;;9.05;5.38;;;;;;;-145.42;100.00;56955.94;2544400;31;2004379;-46
2021/10/01 04:57:25;;;;;;;6.65;4.57;;;;;;;-145.42;100.00;56955.94;2544404;31;2004397;-45
2021/10/01 05:00:50;;;;;;;6.60;4.97;;;;;;;-145.42;100.00;56955.94;2544409;36;2004866;-50
2021/10/01 05:04:16;;;;;;;6.38;4.75;;;;;;;-145.42;100.00;56955.94;2544149;31;2004380;-48
2021/10/01 05:07:42;;;;;;;6.38;4.80;;;;;;;-145.42;100.00;56955.94;2544474;31;2005096;-51
2021/10/01 05:11:08;;;;;;;6.80;4.95;;;;;;;-145.42;100.00;56955.94;2543570;31;2005060;-53
2021/10/01 05:14:34;;;;;;;8.90;4.70;;;;;;;-145.42;100.00;56955.94;2544263;31;2005123;-48
2021/10/01 05:18:02;;;;;;;11.27;5.57;;;;;;;-145.42;100.00;56955.94;2544189;31;2004966;-46
2021/10/01 05:21:28;;;;;;;6.05;4.00;;;;;;;-145.42;100.00;56955.94;2543804;36;2005204;-47
2021/10/01 05:24:53;;;;;;;8.60;5.00;;;;;;;-145.42;100.00;56955.94;2543489;31;2005012;-46
2021/10/01 05:28:19;;;;;;;6.30;4.88;;;;;;;-145.42;100.00;56955.94;2543954;36;2005017;-46
2021/10/01 05:31:46;;;;;;;7.32;4.28;;;;;;;-145.42;100.00;56955.94;2543777;31;2005064;-47
2021/10/01 05:35:13;;;;;;;7.70;4.40;;;;;;;-145.42;100.00;56955.94;2544002;31;2004295;-48
2021/10/01 05:38:39;;;;;;;8.35;4.32;;;;;;;-145.42;100.00;56955.94;2543664;36;2004968;-48
2021/10/01 05:42:05;;;;;;;6.93;4.28;;;;;;;-145.42;100.00;56955.94;2580336;31;2004351;-48
2021/10/01 05:45:31;;;;;;;5.43;3.42;;;;;;;-145.42;100.00;56955.94;2542722;36;2004792;-49
2021/10/01 05:49:00;;;;;;;4.43;3.42;;;;;;;-145.42;100.00;56955.94;2543506;31;2004956;-52
2021/10/01 05:55:58;;;;;;;3.58;3.08;;;;;;;-145.42;100.00;56955.94;2543383;36;2004978;-48
2021/10/01 05:59:24;;;;;;;5.15;3.45;;;;;;;-145.42;100.00;56955.94;2542780;36;2004922;-51
2021/10/01 06:02:49;;;;;;;5.30;3.05;;;;;;;-145.42;100.00;56955.94;2542367;36;2004971;-48
2021/10/01 06:06:15;;;;;;;7.03;3.03;;;;;;;-145.42;100.00;56955.94;2541922;36;2004713;-48
2021/10/01 06:09:42;;;;;;;5.13;2.67;;;;;;;-145.42;100.00;56955.94;2542319;31;2004931;-47
2021/10/01 06:13:08;;;;;;;4.22;2.75;;;;;;;-145.42;100.00;56955.94;2542136;31;2005473;-53
2021/10/01 06:16:34;;;;;;;3.92;2.20;;;;;;;-145.42;100.00;56955.94;2543546;31;2004939;-48
2021/10/01 06:20:02;;;;;;;5.18;2.20;;;;;;;-145.42;100.00;56955.94;2543805;36;2004784;-49
2021/10/01 06:23:33;;;;;;;2.95;1.95;;;;;;;-145.42;100.00;56955.94;2545136;31;2004888;-49
2021/10/01 06:27:01;;;;;;;5.00;1.90;;;;;;;-145.42;100.00;56955.94;2544498;31;2005101;-46
2021/10/01 06:30:26;;;;;;;2.83;2.08;;;;;;;-145.42;100.00;56955.94;2543564;36;2004728;-45
2021/10/01 06:33:52;;;;;;;3.67;2.40;;;;;;;-145.42;100.00;56955.94;2544592;31;2004976;-47
2021/10/01 06:37:18;;;;;;;3.63;2.10;;;;;;;-145.42;100.00;56955.94;2543792;36;2004903;-49
2021/10/01 06:40:45;;;;;;;5.13;2.40;;;;;;;-145.42;100.00;56955.94;2543979;31;2005057;-45
2021/10/01 06:44:15;;;;;;;6.05;2.20;;;;;;;-145.42;100.00;56955.94;2542988;36;2004766;-54
2021/10/01 06:48:04;;;;;;;5.47;2.28;;;;;;;-145.42;100.00;56955.94;2542521;31;2004839;-51
2021/10/01 08:20:36;;;;;;;6.93;2.10;;;;;;;-145.42;100.00;56955.94;2542131;36;2005071;-49
2021/10/01 08:24:02;;;;;;;4.93;2.58;;;;;;;-145.42;100.00;56955.94;2543274;31;2004969;-47
2021/10/01 08:27:31;;;;;;;2.13;1.40;;;;;;;-145.42;100.00;56955.94;2543133;36;2005040;-49
2021/10/01 08:30:57;;;;;;;4.35;1.50;;;;;;;-145.42;100.00;56955.94;2543413;36;2004978;-48
2021/10/01 08:34:22;;;;;;;2.67;2.00;;;;;;;-145.42;100.00;56955.94;2542862;31;2004945;-51
2021/10/01 08:37:52;;;;;;;;;;;;;;;-145.42;100.00;56955.94;2539306;36;2005237;-47
2021/10/01 08:41:19;;;;;;;3.00;1.67;;;;;;;-145.42;100.00;56955.94;2542634;36;2004770;-48
2021/10/01 08:44:45;;;;;;;4.37;1.30;;;;;;;-145.42;100.00;56955.94;2543370;36;2005099;-48
2021/10/01 08:48:11;;;;;;;3.55;1.45;;;;;;;-145.42;100.00;56955.94;2543888;31;2005014;-46
2021/10/01 08:51:38;;;;;;;3.90;1.40;;;;;;;-145.42;100.00;56955.94;2580188;31;2004226;-47
2021/10/01 08:55:05;;;;;;;4.53;1.50;;;;;;;-145.42;100.00;56955.94;2544770;31;2005077;-47
2021/10/01 08:58:31;;;;;;;2.43;1.03;;;;;;;-145.42;100.00;56955.94;2543980;36;2005164;-50
2021/10/01 09:01:58;;;;;;;4.50;1.40;;;;;;;-145.42;100.00;56955.94;2544311;31;2004777;-48
2021/10/01 09:05:25;;;;;;;3.55;1.27;;;;;;;-145.42;100.00;56955.94;2543864;31;2005005;-49
2021/10/01 09:08:56;;;;;;;2.13;1.42;;;;;;;-145.42;100.00;56955.94;2544076;31;2004892;-46
2021/10/01 09:12:24;;;;;;;4.43;1.90;;;;;;;-145.42;100.00;56955.94;2544135;31;2005136;-45
2021/10/01 09:15:58;;;;;;;4.45;1.70;;;;;;;-145.42;100.00;56955.94;2543569;36;2004998;-48
2021/10/01 09:19:35;;;;;;;1.95;1.10;;;;;;;-145.42;100.00;56955.94;2544230;31;2004814;-47
2021/10/01 09:23:20;;;;;;;3.75;1.23;;;;;;;-145.42;100.00;56955.94;2543874;31;2004858;-45
2021/10/01 09:26:48;;;;;;;2.15;1.50;;;;;;;-145.42;100.00;56955.94;2507249;36;2005026;-47
2021/10/01 09:30:27;;;;;;;3.50;1.50;;;;;;;-145.42;100.00;56955.94;2543902;31;2004868;-46
2021/10/01 09:33:53;;;;;;;;;;;;;;;-145.42;100.00;56955.94;2544176;31;2004389;-49
2021/10/01 09:37:26;;;;;;;6.68;1.20;;;;;;;-145.42;100.00;56955.94;2543801;31;2004701;-49
2021/10/01 09:41:12;;;;;;;5.82;1.25;;;;;;;-145.42;100.00;56955.94;2542676;36;2004373;-47
2021/10/01 09:44:42;;;;;;;1.75;0.95;;;;;;;-145.42;100.00;56955.94;2507776;31;2005643;-46
2021/10/01 09:48:09;;;;;;;3.70;1.10;;;;;;;-145.42;100.00;56955.94;2507963;31;2005214;-54
2021/10/01 13:46:26;;;;;;;1.65;0.77;;;;;;;-145.42;100.00;56955.94;2615541;36;20093;-53
2021/10/01 13:49:52;;;;;;;1.15;0.60;;;;;;;-145.42;100.00;56955.94;2544643;36;2004384;-55
2021/10/01 13:53:18;;;;;;;1.85;0.77;;;;;;;-145.42;100.00;56955.94;2544739;31;2005719;-55
2021/10/01 13:56:44;;;;;;;1.17;0.82;;;;;;;-145.42;100.00;56955.94;2543798;36;2004970;-50
2021/10/01 14:00:11;;;;;;;3.90;0.77;;;;;;;-145.42;100.00;56955.94;2580103;36;2004406;-51
2021/10/01 14:03:38;;;;;;;1.60;0.57;;;;;;;-145.42;100.00;56955.94;2544508;31;2005258;-51
2021/10/01 14:07:03;;;;;;;1.60;0.93;;;;;;;-145.42;100.00;56955.94;2544300;31;2005416;-52
2021/10/01 14:10:30;;;;;;;2.45;0.60;;;;;;;-145.42;100.00;56955.94;2543453;36;2004865;-51
2021/10/01 14:14:00;;;;;;;1.50;0.90;;;;;;;-145.42;100.00;56955.94;2544691;36;2005123;-51
2021/10/01 14:17:25;;;;;;;1.23;1.05;;;;;;;-145.42;100.00;56955.94;2544312;31;2004966;-52
2021/10/01 14:20:52;;;;;;;1.88;1.45;;;;;;;-145.42;100.00;56955.94;2543547;36;2004981;-50
2021/10/01 14:24:17;;;;;;;2.60;0.70;;;;;;;-145.42;100.00;56955.94;2543642;31;2005097;-50
2021/10/01 14:27:43;;;;;;;2.55;1.08;;;;;;;-145.42;100.00;56955.94;2544417;31;2004855;-50
2021/10/01 14:31:10;;;;;;;1.70;0.90;;;;;;;-145.42;100.00;56955.94;2580979;31;2004494;-50
2021/10/01 14:34:36;;;;;;;1.15;0.88;;;;;;;-145.42;100.00;56955.94;2543210;36;2004886;-49
2021/10/01 14:38:07;;;;;;;1.58;1.00;;;;;;;-145.42;100.00;56955.94;2543316;36;2004907;-47
2021/10/01 14:41:34;;;;;;;1.90;1.08;;;;;;;-145.42;100.00;56955.94;2543464;31;2005068;-48
2021/10/01 14:45:00;;;;;;;1.75;0.60;;;;;;;-145.42;100.00;56955.94;2542894;36;2004809;-49
2021/10/01 14:48:26;;;;;;;1.27;0.98;;;;;;;-145.42;100.00;56955.94;2543113;36;2004836;-51
2021/10/01 14:51:51;;;;;;;3.15;1.23;;;;;;;-145.42;100.00;56955.94;2543795;31;2005108;-48
2021/10/01 14:55:17;;;;;;;2.05;0.77;;;;;;;-145.42;100.00;56955.94;2541921;36;2004880;-52
2021/10/01 14:58:44;;;;;;;2.83;0.90;;;;;;;-145.42;100.00;56955.94;2543949;31;2005666;-50
2021/10/01 15:02:10;;;;;;;1.50;0.90;;;;;;;-145.42;100.00;56955.94;2579700;31;2004591;-50
2021/10/01 15:05:35;;;;;;;2.40;0.93;;;;;;;-145.42;100.00;56955.94;2543770;31;2004861;-51
2021/10/01 15:09:01;;;;;;;2.15;0.80;;;;;;;-145.42;100.00;56955.94;2544134;31;2005690;-48
2021/10/01 15:12:27;;;;;;;3.42;1.00;;;;;;;-145.42;100.00;56955.94;2544025;31;2004945;-50
2021/10/01 15:15:52;;;;;;;2.65;0.93;;;;;;;-145.42;100.00;56955.94;2544534;31;2004895;-48
2021/10/01 15:19:18;;;;;;;2.95;1.00;;;;;;;-145.42;100.00;56955.94;2543328;31;2004842;-52
2021/10/01 15:22:44;;;;;;;6.88;1.30;;;;;;;-145.42;100.00;56955.94;2543100;36;2005062;-53
2021/10/01 15:26:09;;;;;;;2.58;1.08;;;;;;;-145.42;100.00;56955.94;2578997;36;2004586;-48
2021/10/01 15:30:12;;;;;;;1.48;0.88;;;;;;;-145.42;100.00;56955.94;2543414;31;2004914;-49
2021/10/01 15:33:38;;;;;;;2.72;1.38;;;;;;;-145.42;100.00;56955.94;2469489;36;2005126;-51
2021/10/01 15:37:03;;;;;;;5.18;0.80;;;;;;;-145.42;100.00;56955.94;2543093;31;2004950;-50
2021/10/01 15:40:32;;;;;;;1.92;1.10;;;;;;;-145.42;100.00;56955.94;2543574;31;2004760;-50
2021/10/01 15:43:58;;;;;;;2.00;1.17;;;;;;;-145.42;100.00;56955.94;2543194;31;2004313;-48
2021/10/01 15:47:23;;;;;;;2.20;1.02;;;;;;;-145.42;100.00;56955.94;2542858;36;2005081;-47
2021/10/01 15:50:49;;;;;;;3.08;1.40;;;;;;;-145.42;100.00;56955.94;2542738;36;2004898;-53
2021/10/01 15:54:15;;;;;;;31.90;3.38;;;;;;;-145.42;100.00;56955.94;2542744;31;2005090;-54
2021/10/01 15:57:42;;;;;;;2.78;1.38;;;;;;;-145.42;100.00;56955.94;2579462;31;2004435;-53
2021/10/01 16:01:09;;;;;;;4.47;1.60;;;;;;;-145.42;100.00;56955.94;2542858;36;2005050;-51
2021/10/01 16:04:35;;;;;;;3.17;1.60;;;;;;;-145.42;100.00;56955.94;2543040;31;2005027;-51
2021/10/01 16:08:02;;;;;;;3.85;1.75;;;;;;;-145.42;100.00;56955.94;2542821;36;2005099;-49
2021/10/01 16:11:28;;;;;;;4.38;1.92;;;;;;;-145.42;100.00;56955.94;2542464;36;2005043;-51
2021/10/01 16:14:54;;;;;;;5.10;1.98;;;;;;;-145.42;100.00;56955.94;2543309;31;2004738;-48
2021/10/01 16:18:19;;;;;;;3.95;2.10;;;;;;;-145.42;100.00;56955.94;2543425;31;2004912;-50
2021/10/01 16:21:45;;;;;;;6.32;2.13;;;;;;;-145.42;100.00;56955.94;2543134;31;2005017;-47
2021/10/01 16:25:12;;;;;;;5.07;2.85;;;;;;;-145.42;100.00;56955.94;2579397;31;2004463;-49
2021/10/01 16:28:38;;;;;;;2.00;1.80;;;;;;;-145.42;100.00;56955.94;2543248;31;2005062;-52
2021/10/01 16:32:04;;;;;;;1.88;1.50;;;;;;;-145.42;100.00;56955.94;2543306;31;2004924;-51
2021/10/01 16:35:29;;;;;;;3.72;1.73;;;;;;;-145.42;100.00;56955.94;2543580;31;2004907;-51
2021/10/01 16:38:55;;;;;;;3.45;1.77;;;;;;;-145.42;100.00;56955.94;2542575;36;2004809;-53
2021/10/01 16:42:21;;;;;;;2.05;1.77;;;;;;;-145.42;100.00;56955.94;2542296;36;2004595;-55
2021/10/01 16:45:47;;;;;;;3.97;2.20;;;;;;;-145.42;100.00;56955.94;2542929;31;2004946;-52
2021/10/01 16:49:13;;;;;;;3.45;1.73;;;;;;;-145.42;100.00;56955.94;2542832;36;2004314;-52
2021/10/01 16:52:40;;;;;;;4.22;2.38;;;;;;;-145.42;100.00;56955.94;2543186;36;2005485;-48
2021/10/01 16:56:07;;;;;;;3.50;2.20;;;;;;;-145.42;100.00;56955.94;2543709;36;2005110;-50
2021/10/01 16:59:33;;;;;;;4.47;2.40;;;;;;;-145.42;100.00;56955.94;2544543;31;2004964;-51
2021/10/01 17:02:59;;;;;;;2.28;1.92;;;;;;;-145.42;100.00;56955.94;2549849;31;2005125;-51
2021/10/01 17:06:25;;;;;;;3.00;1.88;;;;;;;-145.42;100.00;56955.94;2544806;36;2004968;-50
2021/10/01 17:09:51;;;;;;;7.00;2.67;;;;;;;-145.42;100.00;56955.94;2544609;31;2004923;-52
2021/10/01 17:13:17;;;;;;;4.90;2.50;;;;;;;-145.42;100.00;56955.94;2543416;36;2004389;-55
2021/10/01 17:16:43;;;;;;;5.72;2.90;;;;;;;-145.42;100.00;56955.94;2543542;36;2005209;-53
2021/10/01 17:20:10;;;;;;;3.40;2.80;;;;;;;-145.42;100.00;56955.94;2543855;31;2005347;-48
2021/10/01 17:23:35;;;;;;;8.43;2.90;;;;;;;-145.42;100.00;56955.94;2543495;31;2004685;-50
2021/10/01 17:27:02;;;;;;;4.82;2.67;;;;;;;-145.42;100.00;56955.94;2544173;31;2005258;-51
2021/10/01 17:30:28;;;;;;;5.80;3.40;;;;;;;-145.42;100.00;56955.94;2543527;36;2004860;-48
2021/10/01 17:33:53;;;;;;;4.40;3.53;;;;;;;-145.42;100.00;56955.94;2544361;31;2004892;-52
2021/10/01 17:37:21;;;;;;;6.63;3.33;;;;;;;-145.42;100.00;56955.94;2543951;31;2004934;-49
2021/10/01 17:40:47;;;;;;;8.35;5.30;;;;;;;-145.42;100.00;56955.94;2543318;36;2005302;-52
2021/10/01 17:44:14;;;;;;;8.65;5.70;;;;;;;-145.42;100.00;56955.94;2543290;36;2004698;-51
2021/10/01 17:47:39;;;;;;;12.30;7.55;;;;;;;-145.42;100.00;56955.94;2543755;31;2004949;-51
2021/10/01 17:51:07;;;;;;;9.63;6.45;;;;;;;-145.42;100.00;56955.94;2543444;31;2004900;-52
2021/10/01 17:54:32;;;;;;;7.97;5.63;;;;;;;-145.42;100.00;56955.94;2542898;36;2005073;-52
2021/10/01 17:57:58;;;;;;;8.65;4.68;;;;;;;-145.42;100.00;56955.94;2543392;31;2004818;-48
2021/10/01 18:01:24;;;;;;;5.88;3.75;;;;;;;-145.42;100.00;56955.94;2543467;31;2005441;-51
2021/10/01 18:04:49;;;;;;;5.55;3.42;;;;;;;-145.42;100.00;56955.94;2543514;31;2004735;-51
2021/10/01 18:08:15;;;;;;;3.35;2.78;;;;;;;-145.42;100.00;56955.94;2543102;36;2005046;-48
2021/10/01 18:11:42;;;;;;;6.38;3.45;;;;;;;-145.42;100.00;56955.94;2579436;31;2004397;-49
2021/10/01 18:15:08;;;;;;;4.82;3.08;;;;;;;-145.42;100.00;56955.94;2542876;36;2005048;-49
2021/10/01 18:18:34;;;;;;;5.63;2.90;;;;;;;-145.42;100.00;56955.94;2542933;31;2004601;-51
2021/10/01 18:21:59;;;;;;;3.85;2.80;;;;;;;-145.42;100.00;56955.94;2543770;31;2005239;-48
2021/10/01 18:25:25;;;;;;;6.40;3.42;;;;;;;-145.42;100.00;56955.94;2543755;31;2004804;-51
2021/10/01 18:28:51;;;;;;;5.60;3.13;;;;;;;-145.42;100.00;56955.94;2544764;31;2004940;-48
2021/10/01 18:32:17;;;;;;;5.85;2.92;;;;;;;-145.42;100.00;56955.94;2543907;31;2004887;-48
2021/10/01 18:35:42;;;;;;;5.25;3.10;;;;;;;-145.42;100.00;56955.94;2580090;31;2004617;-47
2021/10/01 18:39:08;;;;;;;5.38;2.75;;;;;;;-145.42;100.00;56955.94;2544730;31;2004895;-46
2021/10/01 18:42:34;;;;;;;4.65;3.10;;;;;;;-145.42;100.00;56955.94;2543559;31;2004816;-46
2021/10/01 18:46:01;;;;;;;4.53;2.75;;;;;;;-145.42;100.00;56955.94;2543041;31;2004770;-47
2021/10/01 18:49:27;;;;;;;4.97;3.00;;;;;;;-145.42;100.00;56955.94;2544070;31;2005203;-49
2021/10/01 18:52:53;;;;;;;6.93;4.13;;;;;;;-145.42;100.00;56955.94;2543308;36;2004936;-47
2021/10/01 18:56:19;;;;;;;4.22;3.30;;;;;;;-145.42;100.00;56955.94;2544737;31;2005278;-48
2021/10/01 18:59:49;;;;;;;7.38;3.97;;;;;;;-145.42;100.00;56955.94;2543208;36;2004863;-50
2021/10/01 19:03:14;;;;;;;5.65;3.70;;;;;;;-145.42;100.00;56955.94;2544699;31;2004777;-46
2021/10/01 19:06:40;;;;;;;7.65;4.22;;;;;;;-145.42;100.00;56955.94;2543978;31;2005058;-47
2021/10/01 19:10:07;;;;;;;5.68;3.95;;;;;;;-145.42;100.00;56955.94;2543286;36;2005362;-47
2021/10/01 19:13:33;;;;;;;4.28;3.88;;;;;;;-145.42;100.00;56955.94;2542945;36;2004796;-45
2021/10/01 19:17:00;;;;;;;7.18;4.50;;;;;;;-145.42;100.00;56955.94;2542806;36;2005135;-48
2021/10/01 19:20:25;;;;;;;8.70;4.35;;;;;;;-145.42;100.00;56955.94;2543331;31;2004802;-49
2021/10/01 19:31:20;;;;;;;6.80;5.40;;;;;;;-145.42;100.00;56955.94;2506719;31;2005073;-47
2021/10/01 19:34:46;;;;;;;6.32;4.60;;;;;;;-145.42;100.00;56955.94;2543432;31;2005708;-52
2021/10/01 19:38:12;;;;;;;9.52;6.10;;;;;;;-145.42;100.00;56955.94;2579335;36;2004587;-49
2021/10/01 19:41:37;;;;;;;8.82;5.63;;;;;;;-145.42;100.00;56955.94;2543041;31;2005043;-46
2021/10/01 19:45:06;;;;;;;5.60;5.10;;;;;;;-145.42;100.00;56955.94;2543275;31;2004931;-46
2021/10/01 19:48:34;;;;;;;5.68;5.15;;;;;;;-145.42;100.00;56955.94;2543239;31;2004373;-46
2021/10/01 19:51:59;;;;;;;5.20;4.60;;;;;;;-145.42;100.00;56955.94;2542903;36;2004354;-48
2021/10/01 19:55:25;;;;;;;5.38;4.88;;;;;;;-145.42;100.00;56955.94;2542836;31;2004341;-45
2021/10/01 19:58:52;;;;;;;7.03;4.97;;;;;;;-145.42;100.00;56955.94;2543484;31;2004998;-49
2021/10/01 20:02:20;;;;;;;7.50;4.57;;;;;;;-145.42;100.00;56955.94;2543756;31;2004880;-46
2021/10/01 20:05:46;;;;;;;6.88;5.07;;;;;;;-145.42;100.00;56955.94;2543521;31;2005028;-47
2021/10/01 20:09:11;;;;;;;7.30;5.10;;;;;;;-145.42;100.00;56955.94;2579982;31;2004525;-49
2021/10/01 20:12:40;;;;;;;6.82;5.00;;;;;;;-145.42;100.00;56955.94;2544358;36;2004798;-47
2021/10/01 20:16:08;;;;;;;6.32;5.05;;;;;;;-145.42;100.00;56955.94;2544185;31;2004782;-46
2021/10/01 20:49:13;;;;;;;6.03;3.70;;;;;;;-145.42;100.00;56955.94;2544103;31;2005206;-45
2021/10/01 20:52:39;;;;;;;5.43;3.40;;;;;;;-145.42;100.00;56955.94;2543236;36;2004980;-48
2021/10/01 20:56:07;;;;;;;5.25;3.65;;;;;;;-145.42;100.00;56955.94;2543937;31;2004358;-46
2021/10/01 20:59:39;;;;;;;;;;;;;;;-145.42;100.00;56955.94;2543675;31;2005017;-47
2021/10/01 21:51:19;;;;;;;7.18;3.30;;;;;;;-145.42;100.00;56955.94;2543444;31;2004352;-45
2021/10/01 21:54:44;;;;;;;3.53;2.97;;;;;;;-145.42;100.00;56955.94;2579114;36;2004358;-46
2021/10/01 21:58:13;;;;;;;6.15;2.72;;;;;;;-145.42;100.00;56955.94;2543391;36;2005071;-44
2021/10/01 22:01:45;;;;;;;5.57;2.92;;;;;;;-145.42;100.00;56955.94;2543481;36;2004413;-46
2021/10/01 22:08:58;;;;;;;5.18;2.97;;;;;;;-145.42;100.00;56955.94;2507695;31;2005178;-47
2021/10/01 22:20:01;;;;;;;3.97;2.60;;;;;;;-145.42;100.00;56955.94;2543236;31;2005175;-45
2021/10/01 22:20:10;;;;;;;3.50;2.20;;;;;;;-145.42;100.00;56955.94;2506726;36;2004997;-47
2021/10/01 22:23:41;;;;;;;4.70;2.75;;;;;;;-145.42;100.00;56955.94;2543203;36;2004421;-45